sensor_id;sensor_type;location;lat;lon;timestamp;P1;durP1;ratioP1;P2;durP2;ratioP2
57155;SDS011;43023;59.928;10.682;2023-03-01T00:01:04;6.97;;;3.13;;
57155;SDS011;43023;59.928;10.682;2023-03-01T00:03:30;5.03;;;2.10;;
57155;SDS011;43023;59.928;10.682;2023-03-01T00:05:56;4.38;;;2.35;;
57155;SDS011;43023;59.928;10.682;2023-03-01T00:08:22;5.03;;;2.85;;
57155;SDS011;43023;59.928;10.682;2023-03-01T00:10:49;5.00;;;2.67;;
57155;SDS011;43023;59.928;10.682;2023-03-01T00:13:15;4.43;;;2.22;;
57155;SDS011;43023;59.928;10.682;2023-03-01T00:15:41;3.72;;;2.30;;
57155;SDS011;43023;59.928;10.682;2023-03-01T00:18:07;3.75;;;2.20;;
57155;SDS011;43023;59.928;10.682;2023-03-01T00:20:34;3.47;;;2.50;;
57155;SDS011;43023;59.928;10.682;2023-03-01T00:23:00;4.25;;;2.00;;
57155;SDS011;43023;59.928;10.682;2023-03-01T00:25:26;6.30;;;2.17;;
57155;SDS011;43023;59.928;10.682;2023-03-01T00:27:52;3.70;;;2.20;;
57155;SDS011;43023;59.928;10.682;2023-03-01T00:30:18;2.72;;;1.88;;
57155;SDS011;43023;59.928;10.682;2023-03-01T00:32:44;3.72;;;2.15;;
57155;SDS011;43023;59.928;10.682;2023-03-01T00:35:10;2.63;;;2.15;;
57155;SDS011;43023;59.928;10.682;2023-03-01T00:37:36;4.90;;;2.45;;
57155;SDS011;43023;59.928;10.682;2023-03-01T00:40:02;2.83;;;1.60;;
57155;SDS011;43023;59.928;10.682;2023-03-01T00:42:31;4.30;;;2.78;;
57155;SDS011;43023;59.928;10.682;2023-03-01T00:44:57;2.58;;;1.73;;
57155;SDS011;43023;59.928;10.682;2023-03-01T00:47:23;3.60;;;1.92;;
57155;SDS011;43023;59.928;10.682;2023-03-01T00:49:49;5.55;;;2.13;;
57155;SDS011;43023;59.928;10.682;2023-03-01T00:52:15;3.67;;;2.00;;
57155;SDS011;43023;59.928;10.682;2023-03-01T00:54:41;3.30;;;1.80;;
57155;SDS011;43023;59.928;10.682;2023-03-01T00:57:07;3.00;;;2.10;;
57155;SDS011;43023;59.928;10.682;2023-03-01T00:59:39;1.83;;;1.50;;
57155;SDS011;43023;59.928;10.682;2023-03-01T01:02:05;2.35;;;1.50;;
57155;SDS011;43023;59.928;10.682;2023-03-01T01:04:31;1.33;;;1.20;;
57155;SDS011;43023;59.928;10.682;2023-03-01T01:06:57;3.42;;;2.00;;
57155;SDS011;43023;59.928;10.682;2023-03-01T01:09:23;2.55;;;1.67;;
57155;SDS011;43023;59.928;10.682;2023-03-01T01:11:50;5.10;;;1.85;;
57155;SDS011;43023;59.928;10.682;2023-03-01T01:14:17;3.55;;;1.60;;
57155;SDS011;43023;59.928;10.682;2023-03-01T01:16:43;1.33;;;1.13;;
57155;SDS011;43023;59.928;10.682;2023-03-01T01:19:12;3.45;;;1.80;;
57155;SDS011;43023;59.928;10.682;2023-03-01T01:21:38;1.50;;;1.40;;
57155;SDS011;43023;59.928;10.682;2023-03-01T01:24:06;1.92;;;1.30;;
57155;SDS011;43023;59.928;10.682;2023-03-01T01:26:33;1.55;;;1.05;;
57155;SDS011;43023;59.928;10.682;2023-03-01T01:29:00;2.00;;;1.10;;
57155;SDS011;43023;59.928;10.682;2023-03-01T01:31:26;2.03;;;1.40;;
57155;SDS011;43023;59.928;10.682;2023-03-01T01:33:53;3.05;;;1.30;;
57155;SDS011;43023;59.928;10.682;2023-03-01T01:36:19;1.98;;;1.30;;
57155;SDS011;43023;59.928;10.682;2023-03-01T01:38:46;1.92;;;1.30;;
57155;SDS011;43023;59.928;10.682;2023-03-01T01:41:12;1.83;;;1.25;;
57155;SDS011;43023;59.928;10.682;2023-03-01T01:43:40;1.25;;;1.10;;
57155;SDS011;43023;59.928;10.682;2023-03-01T01:46:27;1.50;;;1.20;;
57155;SDS011;43023;59.928;10.682;2023-03-01T01:48:58;1.50;;;1.00;;
57155;SDS011;43023;59.928;10.682;2023-03-01T01:51:27;1.65;;;1.17;;
57155;SDS011;43023;59.928;10.682;2023-03-01T01:54:03;1.77;;;0.82;;
57155;SDS011;43023;59.928;10.682;2023-03-01T01:56:31;2.25;;;1.00;;
57155;SDS011;43023;59.928;10.682;2023-03-01T01:58:57;2.63;;;1.20;;
57155;SDS011;43023;59.928;10.682;2023-03-01T02:01:24;2.15;;;1.25;;
57155;SDS011;43023;59.928;10.682;2023-03-01T02:03:50;1.40;;;1.10;;
57155;SDS011;43023;59.928;10.682;2023-03-01T02:06:29;1.67;;;1.20;;
57155;SDS011;43023;59.928;10.682;2023-03-01T02:08:59;1.15;;;1.00;;
57155;SDS011;43023;59.928;10.682;2023-03-01T02:11:25;1.92;;;1.10;;
57155;SDS011;43023;59.928;10.682;2023-03-01T02:13:53;2.75;;;1.35;;
57155;SDS011;43023;59.928;10.682;2023-03-01T02:16:19;1.73;;;1.20;;
57155;SDS011;43023;59.928;10.682;2023-03-01T02:18:46;2.05;;;0.93;;
57155;SDS011;43023;59.928;10.682;2023-03-01T02:23:58;1.48;;;1.08;;
57155;SDS011;43023;59.928;10.682;2023-03-01T02:26:29;1.30;;;1.05;;
57155;SDS011;43023;59.928;10.682;2023-03-01T02:28:57;1.48;;;0.80;;
57155;SDS011;43023;59.928;10.682;2023-03-01T02:31:23;0.80;;;0.80;;
57155;SDS011;43023;59.928;10.682;2023-03-01T02:34:12;1.23;;;0.90;;
57155;SDS011;43023;59.928;10.682;2023-03-01T02:36:39;0.93;;;0.65;;
57155;SDS011;43023;59.928;10.682;2023-03-01T02:39:07;0.85;;;0.63;;
57155;SDS011;43023;59.928;10.682;2023-03-01T02:41:39;0.90;;;0.70;;
57155;SDS011;43023;59.928;10.682;2023-03-01T02:44:06;1.02;;;0.75;;
57155;SDS011;43023;59.928;10.682;2023-03-01T02:46:33;1.42;;;0.90;;
57155;SDS011;43023;59.928;10.682;2023-03-01T02:48:59;1.48;;;0.60;;
57155;SDS011;43023;59.928;10.682;2023-03-01T02:56:36;1.67;;;1.00;;
57155;SDS011;43023;59.928;10.682;2023-03-01T02:59:02;0.60;;;0.60;;
57155;SDS011;43023;59.928;10.682;2023-03-01T03:04:03;1.25;;;0.60;;
57155;SDS011;43023;59.928;10.682;2023-03-01T03:06:29;1.83;;;0.60;;
57155;SDS011;43023;59.928;10.682;2023-03-01T03:08:55;0.57;;;0.57;;
57155;SDS011;43023;59.928;10.682;2023-03-01T03:11:21;1.33;;;0.70;;
57155;SDS011;43023;59.928;10.682;2023-03-01T03:13:48;0.82;;;0.82;;
57155;SDS011;43023;59.928;10.682;2023-03-01T03:16:14;0.77;;;0.60;;
57155;SDS011;43023;59.928;10.682;2023-03-01T03:18:40;0.60;;;0.60;;
57155;SDS011;43023;59.928;10.682;2023-03-01T03:21:08;1.73;;;0.90;;
57155;SDS011;43023;59.928;10.682;2023-03-01T03:23:37;0.77;;;0.70;;
57155;SDS011;43023;59.928;10.682;2023-03-01T03:26:04;1.20;;;0.60;;
57155;SDS011;43023;59.928;10.682;2023-03-01T03:28:31;0.80;;;0.63;;
57155;SDS011;43023;59.928;10.682;2023-03-01T03:30:57;1.25;;;0.63;;
57155;SDS011;43023;59.928;10.682;2023-03-01T03:33:24;0.93;;;0.50;;
57155;SDS011;43023;59.928;10.682;2023-03-01T03:35:50;0.50;;;0.40;;
57155;SDS011;43023;59.928;10.682;2023-03-01T03:38:18;0.63;;;0.35;;
57155;SDS011;43023;59.928;10.682;2023-03-01T03:40:59;0.85;;;0.60;;
57155;SDS011;43023;59.928;10.682;2023-03-01T03:43:29;0.68;;;0.50;;
57155;SDS011;43023;59.928;10.682;2023-03-01T03:45:55;1.40;;;0.50;;
57155;SDS011;43023;59.928;10.682;2023-03-01T03:48:25;0.57;;;0.47;;
57155;SDS011;43023;59.928;10.682;2023-03-01T03:50:54;0.88;;;0.50;;
57155;SDS011;43023;59.928;10.682;2023-03-01T03:53:22;0.85;;;0.80;;
57155;SDS011;43023;59.928;10.682;2023-03-01T03:55:48;0.52;;;0.50;;
57155;SDS011;43023;59.928;10.682;2023-03-01T03:58:14;0.50;;;0.50;;
57155;SDS011;43023;59.928;10.682;2023-03-01T04:00:42;0.60;;;0.50;;
57155;SDS011;43023;59.928;10.682;2023-03-01T04:03:09;0.80;;;0.65;;
57155;SDS011;43023;59.928;10.682;2023-03-01T04:05:36;0.30;;;0.30;;
57155;SDS011;43023;59.928;10.682;2023-03-01T04:08:02;1.23;;;0.68;;
57155;SDS011;43023;59.928;10.682;2023-03-01T04:10:56;0.80;;;0.80;;
57155;SDS011;43023;59.928;10.682;2023-03-01T04:13:19;0.63;;;0.60;;
57155;SDS011;43023;59.928;10.682;2023-03-01T04:15:46;0.43;;;0.43;;
57155;SDS011;43023;59.928;10.682;2023-03-01T04:18:12;0.50;;;0.50;;
57155;SDS011;43023;59.928;10.682;2023-03-01T04:20:39;1.00;;;0.50;;
57155;SDS011;43023;59.928;10.682;2023-03-01T04:23:06;0.43;;;0.43;;
57155;SDS011;43023;59.928;10.682;2023-03-01T04:25:42;1.02;;;0.68;;
57155;SDS011;43023;59.928;10.682;2023-03-01T04:28:09;0.60;;;0.40;;
57155;SDS011;43023;59.928;10.682;2023-03-01T04:30:36;0.50;;;0.50;;
57155;SDS011;43023;59.928;10.682;2023-03-01T04:33:03;1.13;;;0.50;;
57155;SDS011;43023;59.928;10.682;2023-03-01T04:35:30;0.50;;;0.50;;
57155;SDS011;43023;59.928;10.682;2023-03-01T04:37:56;0.55;;;0.55;;
57155;SDS011;43023;59.928;10.682;2023-03-01T04:40:22;0.47;;;0.43;;
57155;SDS011;43023;59.928;10.682;2023-03-01T04:42:48;0.65;;;0.57;;
57155;SDS011;43023;59.928;10.682;2023-03-01T04:45:15;0.32;;;0.32;;
57155;SDS011;43023;59.928;10.682;2023-03-01T04:47:41;0.60;;;0.50;;
57155;SDS011;43023;59.928;10.682;2023-03-01T04:50:08;0.70;;;0.52;;
57155;SDS011;43023;59.928;10.682;2023-03-01T04:52:34;0.32;;;0.30;;
57155;SDS011;43023;59.928;10.682;2023-03-01T04:55:01;0.60;;;0.60;;
57155;SDS011;43023;59.928;10.682;2023-03-01T04:57:28;0.93;;;0.60;;
57155;SDS011;43023;59.928;10.682;2023-03-01T04:59:54;0.60;;;0.60;;
57155;SDS011;43023;59.928;10.682;2023-03-01T05:02:20;1.88;;;0.60;;
57155;SDS011;43023;59.928;10.682;2023-03-01T05:04:46;0.50;;;0.50;;
57155;SDS011;43023;59.928;10.682;2023-03-01T05:07:13;0.50;;;0.50;;
57155;SDS011;43023;59.928;10.682;2023-03-01T05:09:47;0.57;;;0.43;;
57155;SDS011;43023;59.928;10.682;2023-03-01T05:12:13;1.17;;;0.50;;
57155;SDS011;43023;59.928;10.682;2023-03-01T05:14:39;2.78;;;0.70;;
57155;SDS011;43023;59.928;10.682;2023-03-01T05:17:05;0.40;;;0.40;;
57155;SDS011;43023;59.928;10.682;2023-03-01T05:19:32;0.38;;;0.32;;
57155;SDS011;43023;59.928;10.682;2023-03-01T05:21:58;0.65;;;0.50;;
57155;SDS011;43023;59.928;10.682;2023-03-01T05:24:29;0.40;;;0.40;;
57155;SDS011;43023;59.928;10.682;2023-03-01T05:26:55;0.30;;;0.30;;
57155;SDS011;43023;59.928;10.682;2023-03-01T05:29:22;0.57;;;0.50;;
57155;SDS011;43023;59.928;10.682;2023-03-01T05:31:55;0.40;;;0.40;;
57155;SDS011;43023;59.928;10.682;2023-03-01T05:34:23;0.50;;;0.50;;
57155;SDS011;43023;59.928;10.682;2023-03-01T05:36:50;1.25;;;0.40;;
57155;SDS011;43023;59.928;10.682;2023-03-01T05:39:18;0.50;;;0.40;;
57155;SDS011;43023;59.928;10.682;2023-03-01T05:41:46;0.73;;;0.60;;
57155;SDS011;43023;59.928;10.682;2023-03-01T05:44:12;1.48;;;0.40;;
57155;SDS011;43023;59.928;10.682;2023-03-01T05:46:39;1.27;;;0.60;;
57155;SDS011;43023;59.928;10.682;2023-03-01T05:49:05;0.50;;;0.40;;
57155;SDS011;43023;59.928;10.682;2023-03-01T05:51:31;0.50;;;0.40;;
57155;SDS011;43023;59.928;10.682;2023-03-01T05:53:58;0.40;;;0.35;;
57155;SDS011;43023;59.928;10.682;2023-03-01T05:56:24;0.38;;;0.35;;
57155;SDS011;43023;59.928;10.682;2023-03-01T05:58:51;0.77;;;0.32;;
57155;SDS011;43023;59.928;10.682;2023-03-01T06:01:17;0.98;;;0.40;;
57155;SDS011;43023;59.928;10.682;2023-03-01T06:03:43;0.77;;;0.40;;
57155;SDS011;43023;59.928;10.682;2023-03-01T06:06:09;0.43;;;0.40;;
57155;SDS011;43023;59.928;10.682;2023-03-01T06:08:35;0.52;;;0.45;;
57155;SDS011;43023;59.928;10.682;2023-03-01T06:11:01;1.60;;;0.50;;
57155;SDS011;43023;59.928;10.682;2023-03-01T06:13:28;2.50;;;0.57;;
57155;SDS011;43023;59.928;10.682;2023-03-01T06:15:54;3.25;;;0.82;;
57155;SDS011;43023;59.928;10.682;2023-03-01T06:18:21;0.88;;;0.43;;
57155;SDS011;43023;59.928;10.682;2023-03-01T06:20:52;1.35;;;0.57;;
57155;SDS011;43023;59.928;10.682;2023-03-01T06:23:18;1.75;;;0.70;;
57155;SDS011;43023;59.928;10.682;2023-03-01T06:25:44;3.60;;;0.50;;
57155;SDS011;43023;59.928;10.682;2023-03-01T06:28:10;0.50;;;0.50;;
57155;SDS011;43023;59.928;10.682;2023-03-01T06:30:36;1.27;;;0.80;;
57155;SDS011;43023;59.928;10.682;2023-03-01T06:33:02;0.85;;;0.50;;
57155;SDS011;43023;59.928;10.682;2023-03-01T06:35:29;3.50;;;1.23;;
57155;SDS011;43023;59.928;10.682;2023-03-01T06:37:55;5.13;;;0.52;;
57155;SDS011;43023;59.928;10.682;2023-03-01T06:40:22;4.40;;;0.82;;
57155;SDS011;43023;59.928;10.682;2023-03-01T06:42:49;1.08;;;0.40;;
57155;SDS011;43023;59.928;10.682;2023-03-01T06:45:15;3.10;;;0.88;;
57155;SDS011;43023;59.928;10.682;2023-03-01T06:47:41;2.75;;;0.85;;
57155;SDS011;43023;59.928;10.682;2023-03-01T06:50:08;2.20;;;0.60;;
57155;SDS011;43023;59.928;10.682;2023-03-01T06:52:34;1.08;;;0.60;;
57155;SDS011;43023;59.928;10.682;2023-03-01T06:55:00;1.20;;;0.70;;
57155;SDS011;43023;59.928;10.682;2023-03-01T06:57:27;2.40;;;0.63;;
57155;SDS011;43023;59.928;10.682;2023-03-01T06:59:53;0.85;;;0.80;;
57155;SDS011;43023;59.928;10.682;2023-03-01T07:02:19;1.10;;;0.75;;
57155;SDS011;43023;59.928;10.682;2023-03-01T07:04:45;4.28;;;0.65;;
57155;SDS011;43023;59.928;10.682;2023-03-01T07:07:11;1.27;;;0.60;;
57155;SDS011;43023;59.928;10.682;2023-03-01T07:09:37;1.17;;;0.45;;
57155;SDS011;43023;59.928;10.682;2023-03-01T07:12:04;1.48;;;0.47;;
57155;SDS011;43023;59.928;10.682;2023-03-01T07:14:30;2.72;;;0.70;;
57155;SDS011;43023;59.928;10.682;2023-03-01T07:16:56;1.27;;;0.75;;
57155;SDS011;43023;59.928;10.682;2023-03-01T07:19:22;3.25;;;0.90;;
57155;SDS011;43023;59.928;10.682;2023-03-01T07:21:49;1.25;;;0.60;;
57155;SDS011;43023;59.928;10.682;2023-03-01T07:24:15;2.65;;;0.73;;
57155;SDS011;43023;59.928;10.682;2023-03-01T07:26:41;3.28;;;0.80;;
57155;SDS011;43023;59.928;10.682;2023-03-01T07:29:07;1.67;;;0.50;;
57155;SDS011;43023;59.928;10.682;2023-03-01T07:31:33;2.00;;;0.75;;
57155;SDS011;43023;59.928;10.682;2023-03-01T07:33:59;2.78;;;0.85;;
57155;SDS011;43023;59.928;10.682;2023-03-01T07:36:25;1.02;;;0.50;;
57155;SDS011;43023;59.928;10.682;2023-03-01T07:38:52;2.63;;;0.70;;
57155;SDS011;43023;59.928;10.682;2023-03-01T07:41:20;2.85;;;0.82;;
57155;SDS011;43023;59.928;10.682;2023-03-01T07:43:46;2.60;;;0.95;;
57155;SDS011;43023;59.928;10.682;2023-03-01T07:46:12;1.48;;;0.60;;
57155;SDS011;43023;59.928;10.682;2023-03-01T07:48:39;3.58;;;0.63;;
57155;SDS011;43023;59.928;10.682;2023-03-01T07:51:05;1.63;;;1.00;;
57155;SDS011;43023;59.928;10.682;2023-03-01T07:53:32;3.17;;;0.75;;
57155;SDS011;43023;59.928;10.682;2023-03-01T07:56:06;1.38;;;0.70;;
57155;SDS011;43023;59.928;10.682;2023-03-01T07:58:36;5.30;;;1.33;;
57155;SDS011;43023;59.928;10.682;2023-03-01T08:01:03;1.40;;;0.60;;
57155;SDS011;43023;59.928;10.682;2023-03-01T08:03:29;2.78;;;0.70;;
57155;SDS011;43023;59.928;10.682;2023-03-01T08:05:55;1.42;;;0.77;;
57155;SDS011;43023;59.928;10.682;2023-03-01T08:08:21;2.42;;;0.77;;
57155;SDS011;43023;59.928;10.682;2023-03-01T08:10:47;1.88;;;0.77;;
57155;SDS011;43023;59.928;10.682;2023-03-01T08:13:13;6.82;;;0.88;;
57155;SDS011;43023;59.928;10.682;2023-03-01T08:15:39;1.55;;;0.65;;
57155;SDS011;43023;59.928;10.682;2023-03-01T08:18:06;1.13;;;0.75;;
57155;SDS011;43023;59.928;10.682;2023-03-01T08:20:32;5.00;;;0.70;;
57155;SDS011;43023;59.928;10.682;2023-03-01T08:22:58;1.17;;;0.57;;
57155;SDS011;43023;59.928;10.682;2023-03-01T08:25:24;1.02;;;0.73;;
57155;SDS011;43023;59.928;10.682;2023-03-01T08:27:50;2.92;;;0.70;;
57155;SDS011;43023;59.928;10.682;2023-03-01T08:30:17;2.15;;;0.60;;
57155;SDS011;43023;59.928;10.682;2023-03-01T08:32:43;4.97;;;0.70;;
57155;SDS011;43023;59.928;10.682;2023-03-01T08:35:09;1.88;;;0.90;;
57155;SDS011;43023;59.928;10.682;2023-03-01T08:37:35;0.63;;;0.60;;
57155;SDS011;43023;59.928;10.682;2023-03-01T08:40:01;0.75;;;0.50;;
57155;SDS011;43023;59.928;10.682;2023-03-01T08:42:32;0.50;;;0.50;;
57155;SDS011;43023;59.928;10.682;2023-03-01T08:44:58;1.13;;;0.73;;
57155;SDS011;43023;59.928;10.682;2023-03-01T08:47:24;1.30;;;0.40;;
57155;SDS011;43023;59.928;10.682;2023-03-01T08:49:51;2.80;;;0.77;;
57155;SDS011;43023;59.928;10.682;2023-03-01T08:52:18;1.17;;;0.80;;
57155;SDS011;43023;59.928;10.682;2023-03-01T08:54:45;2.72;;;0.90;;
57155;SDS011;43023;59.928;10.682;2023-03-01T08:57:11;5.10;;;1.23;;
57155;SDS011;43023;59.928;10.682;2023-03-01T08:59:37;1.58;;;0.90;;
57155;SDS011;43023;59.928;10.682;2023-03-01T09:02:04;0.73;;;0.73;;
57155;SDS011;43023;59.928;10.682;2023-03-01T09:04:31;1.35;;;0.77;;
57155;SDS011;43023;59.928;10.682;2023-03-01T09:06:58;1.80;;;0.90;;
57155;SDS011;43023;59.928;10.682;2023-03-01T09:09:24;0.52;;;0.50;;
57155;SDS011;43023;59.928;10.682;2023-03-01T09:11:50;0.77;;;0.55;;
57155;SDS011;43023;59.928;10.682;2023-03-01T09:14:16;1.27;;;0.68;;
57155;SDS011;43023;59.928;10.682;2023-03-01T09:16:42;4.10;;;0.60;;
57155;SDS011;43023;59.928;10.682;2023-03-01T09:19:08;0.88;;;0.82;;
57155;SDS011;43023;59.928;10.682;2023-03-01T09:21:36;1.42;;;0.60;;
57155;SDS011;43023;59.928;10.682;2023-03-01T09:24:03;0.80;;;0.80;;
57155;SDS011;43023;59.928;10.682;2023-03-01T09:26:29;1.17;;;1.00;;
57155;SDS011;43023;59.928;10.682;2023-03-01T09:28:55;1.90;;;0.60;;
57155;SDS011;43023;59.928;10.682;2023-03-01T09:31:22;1.27;;;0.60;;
57155;SDS011;43023;59.928;10.682;2023-03-01T09:33:49;1.45;;;0.60;;
57155;SDS011;43023;59.928;10.682;2023-03-01T09:36:16;1.88;;;1.00;;
57155;SDS011;43023;59.928;10.682;2023-03-01T09:38:43;0.60;;;0.60;;
57155;SDS011;43023;59.928;10.682;2023-03-01T09:41:57;0.95;;;0.40;;
57155;SDS011;43023;59.928;10.682;2023-03-01T09:43:57;1.05;;;0.77;;
57155;SDS011;43023;59.928;10.682;2023-03-01T09:46:28;1.52;;;0.73;;
57155;SDS011;43023;59.928;10.682;2023-03-01T09:48:58;0.65;;;0.50;;
57155;SDS011;43023;59.928;10.682;2023-03-01T09:51:30;0.75;;;0.70;;
57155;SDS011;43023;59.928;10.682;2023-03-01T09:53:57;1.85;;;0.45;;
57155;SDS011;43023;59.928;10.682;2023-03-01T10:04:24;0.77;;;0.43;;
57155;SDS011;43023;59.928;10.682;2023-03-01T10:09:44;2.17;;;0.80;;
57155;SDS011;43023;59.928;10.682;2023-03-01T10:12:12;1.05;;;0.60;;
57155;SDS011;43023;59.928;10.682;2023-03-01T10:14:43;2.20;;;0.63;;
57155;SDS011;43023;59.928;10.682;2023-03-01T10:19:54;0.52;;;0.30;;
57155;SDS011;43023;59.928;10.682;2023-03-01T10:22:22;0.75;;;0.60;;
57155;SDS011;43023;59.928;10.682;2023-03-01T10:24:52;1.02;;;0.43;;
57155;SDS011;43023;59.928;10.682;2023-03-01T10:27:26;0.77;;;0.50;;
57155;SDS011;43023;59.928;10.682;2023-03-01T10:32:24;2.38;;;0.40;;
57155;SDS011;43023;59.928;10.682;2023-03-01T10:34:50;3.22;;;0.70;;
57155;SDS011;43023;59.928;10.682;2023-03-01T10:37:17;1.13;;;0.57;;
57155;SDS011;43023;59.928;10.682;2023-03-01T10:42:31;0.68;;;0.68;;
57155;SDS011;43023;59.928;10.682;2023-03-01T10:47:41;2.00;;;0.68;;
57155;SDS011;43023;59.928;10.682;2023-03-01T10:50:17;0.65;;;0.60;;
57155;SDS011;43023;59.928;10.682;2023-03-01T10:52:54;0.52;;;0.43;;
57155;SDS011;43023;59.928;10.682;2023-03-01T10:55:27;1.30;;;0.45;;
57155;SDS011;43023;59.928;10.682;2023-03-01T10:58:16;1.73;;;0.50;;
57155;SDS011;43023;59.928;10.682;2023-03-01T11:00:51;1.45;;;0.50;;
57155;SDS011;43023;59.928;10.682;2023-03-01T11:03:21;1.55;;;0.60;;
57155;SDS011;43023;59.928;10.682;2023-03-01T11:05:53;0.70;;;0.43;;
57155;SDS011;43023;59.928;10.682;2023-03-01T11:13:52;0.75;;;0.30;;
57155;SDS011;43023;59.928;10.682;2023-03-01T11:18:45;2.15;;;0.40;;
57155;SDS011;43023;59.928;10.682;2023-03-01T11:21:21;0.65;;;0.28;;
57155;SDS011;43023;59.928;10.682;2023-03-01T11:23:47;0.28;;;0.28;;
57155;SDS011;43023;59.928;10.682;2023-03-01T11:26:13;1.63;;;0.50;;
57155;SDS011;43023;59.928;10.682;2023-03-01T11:28:40;1.05;;;0.40;;
57155;SDS011;43023;59.928;10.682;2023-03-01T11:31:08;0.43;;;0.40;;
57155;SDS011;43023;59.928;10.682;2023-03-01T11:33:55;0.43;;;0.40;;
57155;SDS011;43023;59.928;10.682;2023-03-01T11:36:31;1.75;;;0.28;;
57155;SDS011;43023;59.928;10.682;2023-03-01T11:39:02;1.58;;;0.40;;
57155;SDS011;43023;59.928;10.682;2023-03-01T11:41:32;2.45;;;0.30;;
57155;SDS011;43023;59.928;10.682;2023-03-01T11:44:01;1.23;;;0.30;;
57155;SDS011;43023;59.928;10.682;2023-03-01T11:56:44;3.50;;;0.35;;
57155;SDS011;43023;59.928;10.682;2023-03-01T12:06:50;0.70;;;0.35;;
57155;SDS011;43023;59.928;10.682;2023-03-01T12:39:48;0.20;;;0.20;;
57155;SDS011;43023;59.928;10.682;2023-03-01T12:45:18;2.25;;;0.50;;
57155;SDS011;43023;59.928;10.682;2023-03-01T12:50:37;3.22;;;0.40;;
57155;SDS011;43023;59.928;10.682;2023-03-01T12:53:04;0.43;;;0.30;;
57155;SDS011;43023;59.928;10.682;2023-03-01T12:55:34;0.93;;;0.52;;
57155;SDS011;43023;59.928;10.682;2023-03-01T12:58:21;1.40;;;0.40;;
57155;SDS011;43023;59.928;10.682;2023-03-01T13:10:56;0.30;;;0.10;;
57155;SDS011;43023;59.928;10.682;2023-03-01T13:13:23;0.68;;;0.57;;
57155;SDS011;43023;59.928;10.682;2023-03-01T13:15:50;0.50;;;0.47;;
57155;SDS011;43023;59.928;10.682;2023-03-01T13:20:51;0.73;;;0.20;;
57155;SDS011;43023;59.928;10.682;2023-03-01T13:26:03;0.10;;;0.10;;
57155;SDS011;43023;59.928;10.682;2023-03-01T13:31:10;0.45;;;0.30;;
57155;SDS011;43023;59.928;10.682;2023-03-01T13:33:40;1.45;;;0.30;;
57155;SDS011;43023;59.928;10.682;2023-03-01T13:36:07;0.88;;;0.45;;
57155;SDS011;43023;59.928;10.682;2023-03-01T13:41:02;0.30;;;0.30;;
57155;SDS011;43023;59.928;10.682;2023-03-01T13:43:32;0.73;;;0.10;;
57155;SDS011;43023;59.928;10.682;2023-03-01T13:45:59;1.27;;;0.22;;
57155;SDS011;43023;59.928;10.682;2023-03-01T13:48:26;0.77;;;0.20;;
57155;SDS011;43023;59.928;10.682;2023-03-01T13:51:00;1.27;;;0.10;;
57155;SDS011;43023;59.928;10.682;2023-03-01T13:53:29;0.20;;;0.10;;
57155;SDS011;43023;59.928;10.682;2023-03-01T13:56:13;0.20;;;0.10;;
57155;SDS011;43023;59.928;10.682;2023-03-01T13:58:53;0.57;;;0.20;;
57155;SDS011;43023;59.928;10.682;2023-03-01T14:01:29;0.22;;;0.22;;
57155;SDS011;43023;59.928;10.682;2023-03-01T14:03:56;0.50;;;0.30;;
57155;SDS011;43023;59.928;10.682;2023-03-01T14:06:24;1.15;;;0.20;;
57155;SDS011;43023;59.928;10.682;2023-03-01T14:09:00;0.15;;;0.15;;
57155;SDS011;43023;59.928;10.682;2023-03-01T14:11:35;0.52;;;0.30;;
57155;SDS011;43023;59.928;10.682;2023-03-01T14:14:07;0.55;;;0.20;;
57155;SDS011;43023;59.928;10.682;2023-03-01T14:16:40;0.77;;;0.20;;
57155;SDS011;43023;59.928;10.682;2023-03-01T14:19:17;0.47;;;0.20;;
57155;SDS011;43023;59.928;10.682;2023-03-01T14:21:45;1.65;;;0.22;;
57155;SDS011;43023;59.928;10.682;2023-03-01T14:24:29;0.20;;;0.20;;
57155;SDS011;43023;59.928;10.682;2023-03-01T14:26:58;0.40;;;0.20;;
57155;SDS011;43023;59.928;10.682;2023-03-01T14:29:28;0.10;;;0.10;;
57155;SDS011;43023;59.928;10.682;2023-03-01T14:32:08;0.57;;;0.10;;
57155;SDS011;43023;59.928;10.682;2023-03-01T14:34:34;0.32;;;0.20;;
57155;SDS011;43023;59.928;10.682;2023-03-01T14:37:10;0.47;;;0.15;;
57155;SDS011;43023;59.928;10.682;2023-03-01T14:39:36;0.77;;;0.10;;
57155;SDS011;43023;59.928;10.682;2023-03-01T14:42:04;0.10;;;0.10;;
57155;SDS011;43023;59.928;10.682;2023-03-01T14:44:30;0.10;;;0.10;;
57155;SDS011;43023;59.928;10.682;2023-03-01T14:46:59;0.10;;;0.10;;
57155;SDS011;43023;59.928;10.682;2023-03-01T14:49:28;0.28;;;0.20;;
57155;SDS011;43023;59.928;10.682;2023-03-01T14:52:02;0.10;;;0.10;;
57155;SDS011;43023;59.928;10.682;2023-03-01T14:56:57;0.38;;;0.20;;
57155;SDS011;43023;59.928;10.682;2023-03-01T14:59:24;0.55;;;0.30;;
57155;SDS011;43023;59.928;10.682;2023-03-01T15:01:51;0.28;;;0.10;;
57155;SDS011;43023;59.928;10.682;2023-03-01T15:04:18;0.25;;;0.10;;
57155;SDS011;43023;59.928;10.682;2023-03-01T15:06:45;0.30;;;0.30;;
57155;SDS011;43023;59.928;10.682;2023-03-01T15:09:13;0.10;;;0.00;;
57155;SDS011;43023;59.928;10.682;2023-03-01T15:11:43;0.10;;;0.10;;
57155;SDS011;43023;59.928;10.682;2023-03-01T15:16:54;0.57;;;0.10;;
57155;SDS011;43023;59.928;10.682;2023-03-01T15:19:27;1.48;;;0.20;;
57155;SDS011;43023;59.928;10.682;2023-03-01T15:21:54;0.15;;;0.10;;
57155;SDS011;43023;59.928;10.682;2023-03-01T15:24:24;0.20;;;0.20;;
57155;SDS011;43023;59.928;10.682;2023-03-01T15:26:56;0.10;;;0.10;;
57155;SDS011;43023;59.928;10.682;2023-03-01T15:29:25;1.20;;;0.20;;
57155;SDS011;43023;59.928;10.682;2023-03-01T15:32:05;0.75;;;0.13;;
57155;SDS011;43023;59.928;10.682;2023-03-01T15:34:32;0.47;;;0.17;;
57155;SDS011;43023;59.928;10.682;2023-03-01T15:36:59;0.10;;;0.10;;
57155;SDS011;43023;59.928;10.682;2023-03-01T15:39:42;0.25;;;0.10;;
57155;SDS011;43023;59.928;10.682;2023-03-01T15:42:10;0.10;;;0.10;;
57155;SDS011;43023;59.928;10.682;2023-03-01T15:44:37;2.30;;;0.28;;
57155;SDS011;43023;59.928;10.682;2023-03-01T15:50:05;1.17;;;0.28;;
57155;SDS011;43023;59.928;10.682;2023-03-01T15:52:34;0.55;;;0.10;;
57155;SDS011;43023;59.928;10.682;2023-03-01T15:55:05;4.05;;;0.10;;
57155;SDS011;43023;59.928;10.682;2023-03-01T15:57:32;1.35;;;0.13;;
57155;SDS011;43023;59.928;10.682;2023-03-01T15:59:58;0.50;;;0.10;;
57155;SDS011;43023;59.928;10.682;2023-03-01T16:02:24;2.17;;;0.40;;
57155;SDS011;43023;59.928;10.682;2023-03-01T16:04:50;0.95;;;0.20;;
57155;SDS011;43023;59.928;10.682;2023-03-01T16:07:18;1.08;;;0.10;;
57155;SDS011;43023;59.928;10.682;2023-03-01T16:09:44;0.30;;;0.25;;
57155;SDS011;43023;59.928;10.682;2023-03-01T16:12:14;4.28;;;0.55;;
57155;SDS011;43023;59.928;10.682;2023-03-01T16:14:40;0.30;;;0.17;;
57155;SDS011;43023;59.928;10.682;2023-03-01T16:17:07;0.20;;;0.10;;
57155;SDS011;43023;59.928;10.682;2023-03-01T16:19:35;0.17;;;0.10;;
57155;SDS011;43023;59.928;10.682;2023-03-01T16:22:02;2.92;;;0.20;;
57155;SDS011;43023;59.928;10.682;2023-03-01T16:24:28;0.90;;;0.20;;
57155;SDS011;43023;59.928;10.682;2023-03-01T16:26:55;0.10;;;0.10;;
57155;SDS011;43023;59.928;10.682;2023-03-01T16:29:21;0.57;;;0.25;;
57155;SDS011;43023;59.928;10.682;2023-03-01T16:31:47;0.47;;;0.10;;
57155;SDS011;43023;59.928;10.682;2023-03-01T16:34:13;0.98;;;0.20;;
57155;SDS011;43023;59.928;10.682;2023-03-01T16:36:39;0.20;;;0.20;;
57155;SDS011;43023;59.928;10.682;2023-03-01T16:39:08;2.72;;;0.20;;
57155;SDS011;43023;59.928;10.682;2023-03-01T16:41:34;0.10;;;0.10;;